Time;durP1;ratioP1;P1;durP2;ratioP2;P2;SDS_P1;SDS_P2;PMS_P1;PMS_P2;Temp;Humidity;BMP_temperature;BMP_pressure;BME280_temperature;BME280_humidity;BME280_pressure;Samples;Min_cycle;Max_cycle;Signal;HPM_P1;HPM_P2
2020/12/12 00:02:18;;;;;;;19.40;8.63;;;5.40;99.90;;;;;;5076068;28;20036;-70
2020/12/12 00:04:43;;;;;;;21.63;9.45;;;5.40;99.90;;;;;;5082172;28;20032;-69
2020/12/12 00:07:10;;;;;;;17.98;8.38;;;5.40;99.90;;;;;;5057677;28;20055;-70
2020/12/12 00:09:36;;;;;;;20.83;8.95;;;5.50;99.90;;;;;;5071700;28;20024;-69
2020/12/12 00:12:03;;;;;;;17.92;8.38;;;5.50;99.90;;;;;;5073475;28;20062;-70
2020/12/12 00:14:28;;;;;;;15.30;6.68;;;5.50;99.90;;;;;;5071957;28;20048;-69
2020/12/12 00:16:55;;;;;;;19.25;8.48;;;5.50;99.90;;;;;;5075757;28;20020;-70
2020/12/12 00:19:21;;;;;;;19.23;9.18;;;5.50;99.90;;;;;;5082898;28;20024;-70
2020/12/12 00:21:53;;;;;;;18.48;7.45;;;5.50;99.90;;;;;;5082990;28;20123;-69
2020/12/12 00:24:20;;;;;;;19.25;8.25;;;5.50;99.90;;;;;;5079830;28;20028;-70
2020/12/12 00:26:46;;;;;;;18.23;7.22;;;5.50;99.90;;;;;;5088490;28;20063;-70
2020/12/12 00:29:13;;;;;;;16.85;7.28;;;5.60;99.90;;;;;;5080385;28;20056;-70
2020/12/12 00:31:43;;;;;;;19.25;8.68;;;5.50;99.90;;;;;;5082693;28;20039;-69
2020/12/12 00:34:09;;;;;;;17.92;8.07;;;5.60;99.90;;;;;;5078182;28;20039;-70
2020/12/12 00:36:40;;;;;;;13.88;6.03;;;5.60;99.90;;;;;;5065390;28;20039;-69
2020/12/12 00:39:06;;;;;;;18.05;8.23;;;6.80;99.90;;;;;;5062850;28;20491;-69
2020/12/12 00:41:36;;;;;;;17.02;6.88;;;5.60;99.90;;;;;;5085596;28;20376;-70
2020/12/12 00:44:03;;;;;;;15.15;6.07;;;5.70;99.90;;;;;;5082706;28;20026;-69
2020/12/12 00:46:29;;;;;;;10.80;5.05;;;5.70;99.90;;;;;;5063882;28;20057;-69
2020/12/12 00:48:55;;;;;;;16.40;7.30;;;5.70;99.90;;;;;;5068282;28;20038;-70
2020/12/12 00:51:21;;;;;;;14.90;6.45;;;5.70;99.90;;;;;;5062613;28;20383;-69
2020/12/12 00:53:47;;;;;;;17.13;7.88;;;5.70;99.90;;;;;;5078988;28;20075;-70
2020/12/12 00:56:14;;;;;;;15.55;6.82;;;5.70;99.90;;;;;;5064444;28;20043;-70
2020/12/12 00:58:40;;;;;;;16.38;7.30;;;5.80;99.90;;;;;;5083167;28;20115;-70
2020/12/12 01:01:06;;;;;;;16.02;7.20;;;5.80;99.90;;;;;;5057731;28;20115;-70
2020/12/12 01:03:31;;;;;;;17.25;8.68;;;5.80;99.90;;;;;;5072446;28;20023;-69
2020/12/12 01:05:57;;;;;;;17.98;7.93;;;5.80;99.90;;;;;;5072176;28;20024;-70
2020/12/12 01:08:23;;;;;;;15.90;6.57;;;5.80;99.90;;;;;;5061670;28;20024;-69
2020/12/12 01:10:48;;;;;;;14.63;6.57;;;5.80;99.90;;;;;;5065915;28;20527;-69
2020/12/12 01:13:14;;;;;;;15.73;6.65;;;5.80;99.90;;;;;;5080451;28;20379;-69
2020/12/12 01:15:40;;;;;;;17.23;6.95;;;5.80;99.90;;;;;;5073479;28;20044;-69
2020/12/12 01:18:05;;;;;;;17.17;7.63;;;5.80;99.90;;;;;;5063035;28;20032;-70
2020/12/12 01:20:31;;;;;;;19.02;8.63;;;5.80;99.90;;;;;;5068910;28;20039;-70
2020/12/12 01:22:56;;;;;;;16.02;6.70;;;5.80;99.90;;;;;;5068565;28;20032;-70
2020/12/12 01:25:22;;;;;;;17.88;7.65;;;5.90;99.90;;;;;;5067620;28;20024;-70
2020/12/12 01:27:50;;;;;;;14.35;5.90;;;5.90;99.90;;;;;;5081042;28;20107;-70
2020/12/12 01:30:15;;;;;;;15.40;7.63;;;5.90;99.90;;;;;;5080735;28;20020;-70
2020/12/12 01:32:41;;;;;;;19.35;7.95;;;5.80;99.90;;;;;;5079730;28;20021;-70
2020/12/12 01:35:06;;;;;;;17.77;8.10;;;5.80;99.90;;;;;;5074195;28;20490;-70
2020/12/12 01:37:32;;;;;;;16.63;7.78;;;5.90;99.90;;;;;;5063888;28;20061;-69
2020/12/12 01:39:58;;;;;;;17.23;7.50;;;5.80;99.90;;;;;;5085668;28;20190;-71
2020/12/12 01:42:23;;;;;;;16.38;7.72;;;5.80;99.90;;;;;;5080956;28;20081;-69
2020/12/12 01:44:55;;;;;;;18.85;7.95;;;5.90;99.90;;;;;;5065544;28;20170;-70
2020/12/12 01:47:21;;;;;;;13.98;5.93;;;5.90;99.90;;;;;;5073414;28;20016;-70
2020/12/12 01:49:50;;;;;;;14.93;6.80;;;5.90;99.90;;;;;;5074840;28;20055;-70
2020/12/12 01:52:16;;;;;;;16.95;7.05;;;5.90;99.90;;;;;;5078395;28;20146;-69
2020/12/12 01:54:47;;;;;;;13.05;6.00;;;6.00;99.90;;;;;;5079924;28;20076;-70
2020/12/12 01:57:17;;;;;;;16.80;7.07;;;6.00;99.90;;;;;;5084490;28;20023;-70
2020/12/12 01:59:43;;;;;;;13.95;5.93;;;6.00;99.90;;;;;;5073424;28;20487;-70
2020/12/12 02:02:11;;;;;;;15.13;6.38;;;6.00;99.90;;;;;;5083868;28;20080;-69
2020/12/12 02:04:39;;;;;;;13.55;5.68;;;6.00;99.90;;;;;;5077300;28;20036;-70
2020/12/12 02:07:05;;;;;;;12.55;5.72;;;6.00;99.90;;;;;;5073396;28;20077;-69
2020/12/12 02:09:33;;;;;;;18.08;6.97;;;5.90;99.90;;;;;;5060406;28;20476;-70
2020/12/12 02:12:00;;;;;;;15.45;6.65;;;6.00;99.90;;;;;;5056715;28;20051;-70
2020/12/12 02:14:26;;;;;;;16.17;7.13;;;5.90;99.90;;;;;;5080571;28;20046;-70
2020/12/12 02:17:01;;;;;;;18.98;7.95;;;5.80;99.90;;;;;;5074020;28;20021;-70
2020/12/12 02:19:27;;;;;;;16.70;6.28;;;5.80;99.90;;;;;;5068819;28;20380;-71
2020/12/12 02:21:56;;;;;;;18.58;7.47;;;5.70;99.90;;;;;;5057811;28;20036;-70
2020/12/12 02:24:24;;;;;;;15.57;6.00;;;5.70;99.90;;;;;;5089383;28;20491;-70
2020/12/12 02:26:50;;;;;;;15.35;7.07;;;5.60;99.90;;;;;;5075358;28;20043;-70
2020/12/12 02:29:16;;;;;;;16.50;7.38;;;5.60;99.90;;;;;;5072865;28;20127;-70
2020/12/12 02:31:43;;;;;;;16.30;7.15;;;5.60;99.90;;;;;;5072321;28;20074;-71
2020/12/12 02:34:09;;;;;;;17.42;7.47;;;5.60;99.90;;;;;;5071994;28;20032;-70
2020/12/12 02:36:41;;;;;;;16.25;6.50;;;5.60;99.90;;;;;;5066591;28;20033;-70
2020/12/12 02:39:08;;;;;;;19.35;7.63;;;5.60;99.90;;;;;;5070906;28;20071;-70
2020/12/12 02:41:34;;;;;;;20.23;6.57;;;5.60;99.90;;;;;;5055252;28;20028;-70
2020/12/12 02:44:00;;;;;;;20.17;8.73;;;5.70;99.90;;;;;;5072797;28;20031;-68
2020/12/12 02:46:26;;;;;;;16.25;7.22;;;5.60;99.90;;;;;;5072423;28;20097;-70
2020/12/12 02:48:52;;;;;;;15.98;6.35;;;5.60;99.90;;;;;;5072988;28;20042;-69
2020/12/12 02:51:18;;;;;;;15.95;6.35;;;5.70;99.90;;;;;;5071886;28;20021;-68
2020/12/12 02:53:45;;;;;;;16.83;6.97;;;5.70;99.90;;;;;;5072704;28;20488;-69
2020/12/12 02:56:14;;;;;;;16.65;6.97;;;5.70;99.90;;;;;;5071105;28;20037;-69
2020/12/12 02:58:40;;;;;;;14.27;6.30;;;5.70;99.90;;;;;;5072312;28;20119;-70
2020/12/12 03:01:06;;;;;;;14.55;5.93;;;5.70;99.90;;;;;;5052993;28;20021;-69
2020/12/12 03:03:32;;;;;;;13.65;6.18;;;5.70;99.90;;;;;;5071699;28;20024;-69
2020/12/12 03:05:57;;;;;;;19.30;7.95;;;5.80;99.90;;;;;;5071479;28;20147;-69
2020/12/12 03:08:23;;;;;;;12.80;5.45;;;5.80;99.90;;;;;;5069956;28;20027;-69
2020/12/12 03:10:48;;;;;;;18.52;7.70;;;5.80;99.90;;;;;;5072750;28;20033;-69
2020/12/12 03:13:14;;;;;;;20.50;8.07;;;5.70;99.90;;;;;;5052518;28;20025;-69
2020/12/12 03:15:40;;;;;;;17.02;6.53;;;5.80;99.90;;;;;;5044406;28;20033;-69
2020/12/12 03:18:05;;;;;;;14.40;6.32;;;5.80;99.90;;;;;;5071704;28;20103;-69
2020/12/12 03:20:31;;;;;;;18.27;7.60;;;5.80;99.90;;;;;;5070325;28;20032;-69
2020/12/12 03:22:56;;;;;;;19.25;7.35;;;5.70;99.90;;;;;;5065965;28;20045;-69
2020/12/12 03:25:22;;;;;;;15.25;6.20;;;5.80;99.90;;;;;;5052010;28;20025;-70
2020/12/12 03:27:48;;;;;;;19.00;7.50;;;5.70;99.90;;;;;;5070030;28;20028;-69
2020/12/12 03:30:13;;;;;;;13.75;5.85;;;5.70;99.90;;;;;;5069948;28;20059;-69
2020/12/12 03:32:39;;;;;;;16.13;6.85;;;5.80;99.90;;;;;;5062211;28;20040;-69
2020/12/12 03:35:05;;;;;;;16.42;7.15;;;5.70;99.90;;;;;;5070333;28;20037;-69
2020/12/12 03:37:30;;;;;;;14.77;6.25;;;5.70;99.90;;;;;;5072122;28;20017;-69
2020/12/12 03:39:56;;;;;;;16.40;6.35;;;5.70;99.90;;;;;;5071388;28;20100;-69
2020/12/12 03:42:22;;;;;;;16.58;6.70;;;5.80;99.90;;;;;;5070619;28;20020;-69
2020/12/12 03:44:47;;;;;;;15.68;6.85;;;5.80;99.90;;;;;;5070843;28;20067;-69
2020/12/12 03:47:13;;;;;;;16.67;7.05;;;5.80;99.90;;;;;;5069752;28;20024;-69
2020/12/12 03:49:39;;;;;;;16.15;6.25;;;5.80;99.90;;;;;;5069938;28;20051;-68
2020/12/12 03:52:04;;;;;;;15.32;6.05;;;5.80;99.90;;;;;;5068847;28;20078;-69
2020/12/12 03:54:30;;;;;;;13.38;6.18;;;5.80;99.90;;;;;;5070506;28;20048;-69
2020/12/12 03:56:56;;;;;;;14.43;6.00;;;5.80;99.90;;;;;;5070627;28;20137;-68
2020/12/12 03:59:21;;;;;;;12.77;5.90;;;5.80;99.90;;;;;;5069864;28;20024;-69
2020/12/12 04:01:47;;;;;;;10.45;5.00;;;5.80;99.90;;;;;;5053024;28;20107;-69
2020/12/12 04:04:13;;;;;;;14.48;5.65;;;5.90;99.90;;;;;;5070108;28;20040;-69
2020/12/12 04:06:39;;;;;;;12.85;4.68;;;5.90;99.90;;;;;;5052353;28;20024;-69
2020/12/12 04:09:04;;;;;;;10.95;4.03;;;5.80;99.90;;;;;;5046978;28;20021;-69
2020/12/12 04:11:30;;;;;;;12.20;5.40;;;5.90;99.90;;;;;;5070376;28;20384;-69
2020/12/12 04:13:55;;;;;;;11.90;5.20;;;5.90;99.90;;;;;;5070067;28;20036;-69
2020/12/12 04:16:21;;;;;;;10.95;5.00;;;5.90;99.90;;;;;;5055577;28;20532;-69
2020/12/12 04:18:48;;;;;;;13.63;5.60;;;5.90;99.90;;;;;;5061129;28;20092;-69
2020/12/12 04:21:14;;;;;;;10.63;4.75;;;6.10;99.90;;;;;;5075994;28;20020;-69
2020/12/12 04:23:43;;;;;;;10.93;4.30;;;6.00;99.90;;;;;;5069836;28;20395;-70
2020/12/12 04:26:12;;;;;;;12.20;4.47;;;5.90;99.90;;;;;;5068856;28;20032;-69
2020/12/12 04:28:39;;;;;;;11.63;4.05;;;5.90;99.90;;;;;;5070516;28;20536;-69
2020/12/12 04:31:06;;;;;;;14.52;5.88;;;5.90;99.90;;;;;;5070675;28;20133;-69
2020/12/12 04:33:32;;;;;;;11.30;4.70;;;5.90;99.90;;;;;;5069710;28;20392;-68
2020/12/12 04:35:58;;;;;;;12.15;5.40;;;5.90;99.90;;;;;;5051308;28;20025;-70
2020/12/12 04:38:23;;;;;;;9.35;3.58;;;6.00;99.90;;;;;;5051254;28;20770;-68
2020/12/12 04:40:49;;;;;;;11.70;5.03;;;6.00;99.90;;;;;;5041584;28;20447;-68
2020/12/12 04:43:15;;;;;;;13.52;4.93;;;6.00;99.90;;;;;;5051779;28;20024;-68
2020/12/12 04:45:44;;;;;;;15.02;5.22;;;6.00;99.90;;;;;;5068163;28;20033;-69
2020/12/12 04:48:09;;;;;;;11.23;4.63;;;6.00;99.90;;;;;;5051357;28;20032;-68
2020/12/12 04:50:35;;;;;;;10.82;4.65;;;6.00;99.90;;;;;;5052602;28;20017;-70
2020/12/12 04:53:34;;;;;;;13.38;5.20;;;6.00;99.90;;;;;;5070662;28;20029;-68
2020/12/12 04:56:04;;;;;;;11.88;4.80;;;6.00;99.90;;;;;;5008091;28;20049;-69
2020/12/12 04:58:30;;;;;;;14.82;5.97;;;6.00;99.90;;;;;;5030027;28;20237;-69
2020/12/12 05:00:57;;;;;;;15.15;6.35;;;6.00;99.90;;;;;;5029022;28;20038;-70
2020/12/12 05:03:24;;;;;;;16.45;6.32;;;6.00;99.90;;;;;;5029370;28;20035;-70
2020/12/12 05:05:50;;;;;;;13.65;5.47;;;6.00;99.90;;;;;;5030679;28;20024;-70
2020/12/12 05:08:16;;;;;;;14.77;6.43;;;6.00;99.90;;;;;;5025621;28;20022;-70
2020/12/12 05:10:44;;;;;;;14.25;6.10;;;5.90;99.90;;;;;;5028915;28;20018;-70
2020/12/12 05:13:15;;;;;;;11.95;5.28;;;5.90;99.90;;;;;;5022573;28;20044;-68
2020/12/12 05:15:40;;;;;;;15.35;6.00;;;5.90;99.90;;;;;;5020503;28;20041;-71
2020/12/12 05:18:06;;;;;;;13.45;5.68;;;5.90;99.90;;;;;;5027292;28;20485;-69
2020/12/12 05:20:33;;;;;;;14.77;6.53;;;5.80;99.90;;;;;;5030877;28;20025;-70
2020/12/12 05:22:58;;;;;;;20.05;7.03;;;5.90;99.90;;;;;;5030060;28;20113;-70
2020/12/12 05:25:25;;;;;;;11.10;4.63;;;5.90;99.90;;;;;;5029631;28;20109;-68
2020/12/12 05:27:51;;;;;;;12.80;5.22;;;5.90;99.90;;;;;;5030311;28;20022;-69
2020/12/12 05:30:17;;;;;;;15.23;7.10;;;5.90;99.90;;;;;;5027892;28;20026;-70
2020/12/12 05:32:44;;;;;;;16.58;6.63;;;6.00;99.90;;;;;;5029785;28;20037;-69
2020/12/12 05:35:10;;;;;;;14.52;5.80;;;6.00;99.90;;;;;;5042558;28;20033;-70
2020/12/12 05:37:40;;;;;;;14.40;5.63;;;6.00;99.90;;;;;;5030006;28;20037;-70
2020/12/12 05:40:07;;;;;;;12.40;5.00;;;6.00;99.90;;;;;;5029897;28;20030;-70
2020/12/12 05:42:35;;;;;;;12.85;5.63;;;6.10;99.90;;;;;;5042204;28;20026;-70
2020/12/12 05:45:05;;;;;;;12.90;5.30;;;6.10;99.90;;;;;;5022736;28;20022;-69
2020/12/12 05:47:32;;;;;;;12.03;5.80;;;6.10;99.90;;;;;;5030513;28;20108;-70
2020/12/12 05:49:58;;;;;;;14.15;5.75;;;6.20;99.90;;;;;;5036014;28;20034;-69
2020/12/12 05:52:23;;;;;;;15.15;6.28;;;6.20;99.90;;;;;;5027615;28;20017;-70
2020/12/12 05:54:50;;;;;;;13.95;5.90;;;6.20;99.90;;;;;;5034087;28;20416;-67
2020/12/12 05:57:16;;;;;;;14.05;6.43;;;6.20;99.90;;;;;;5036969;28;20030;-70
2020/12/12 05:59:43;;;;;;;15.20;6.55;;;6.20;99.90;;;;;;5039846;28;20051;-69
2020/12/12 06:02:12;;;;;;;18.88;5.20;;;6.20;99.90;;;;;;5036734;28;20112;-69
2020/12/12 06:04:48;;;;;;;12.40;5.75;;;6.20;99.90;;;;;;5020849;28;20108;-68
2020/12/12 06:07:27;;;;;;;14.60;6.00;;;6.20;99.90;;;;;;5020231;28;20108;-69
2020/12/12 06:10:02;;;;;;;12.73;5.32;;;6.20;99.90;;;;;;5018865;28;20100;-69
2020/12/12 06:12:28;;;;;;;13.23;5.72;;;6.20;99.90;;;;;;5031009;28;20041;-69
2020/12/12 06:14:57;;;;;;;12.13;6.05;;;6.20;99.90;;;;;;5033381;28;20579;-69
2020/12/12 06:18:05;;;;;;;11.05;5.18;;;6.20;99.90;;;;;;5041710;28;20108;-70
2020/12/12 06:20:31;;;;;;;13.63;5.93;;;6.20;99.90;;;;;;5002403;28;20526;-70
2020/12/12 06:22:57;;;;;;;14.13;5.50;;;6.20;99.90;;;;;;5021707;28;20124;-69
2020/12/12 06:25:27;;;;;;;12.38;5.00;;;6.20;99.90;;;;;;5024508;28;20040;-69
2020/12/12 06:27:55;;;;;;;13.95;5.78;;;6.20;99.90;;;;;;5033412;28;20017;-68
2020/12/12 06:30:25;;;;;;;13.35;5.93;;;6.20;99.90;;;;;;5027235;28;20527;-69
2020/12/12 06:32:57;;;;;;;;;;;6.10;99.90;;;;;;5013642;28;20061;-70
2020/12/12 06:35:33;;;;;;;12.52;5.03;;;6.10;99.90;;;;;;5017558;28;19914;-69
2020/12/12 06:38:25;;;;;;;15.95;6.13;;;6.10;99.90;;;;;;5017471;28;20265;-69
2020/12/12 06:40:53;;;;;;;14.85;5.55;;;6.10;99.90;;;;;;5025820;28;20439;-68
2020/12/12 06:43:34;;;;;;;12.45;5.57;;;6.20;99.90;;;;;;5046850;28;20409;-68
2020/12/12 06:46:04;;;;;;;12.80;4.72;;;6.20;99.90;;;;;;5016873;28;20030;-69
2020/12/12 06:48:30;;;;;;;;;;;6.20;99.90;;;;;;5015650;28;20056;-69
2020/12/12 06:50:57;;;;;;;15.25;6.55;;;6.20;99.90;;;;;;5017658;28;20415;-69
2020/12/12 06:53:25;;;;;;;14.45;5.93;;;6.10;99.90;;;;;;5017739;28;20390;-69
2020/12/12 06:56:12;;;;;;;14.95;5.13;;;6.10;99.90;;;;;;5044489;28;20046;-69
2020/12/12 06:58:38;;;;;;;16.45;6.60;;;6.10;99.90;;;;;;5014247;28;20477;-69
2020/12/12 07:01:30;;;;;;;15.38;6.25;;;6.00;99.90;;;;;;5020829;28;20030;-69
2020/12/12 07:03:58;;;;;;;14.70;6.00;;;6.00;99.90;;;;;;5030442;28;20405;-70
2020/12/12 07:06:28;;;;;;;14.65;5.53;;;6.00;99.90;;;;;;5023612;28;20013;-69
2020/12/12 07:09:02;;;;;;;13.07;4.82;;;6.00;99.90;;;;;;5028271;28;20026;-70
2020/12/12 07:11:28;;;;;;;13.48;5.55;;;6.10;99.90;;;;;;5031645;28;20432;-69
2020/12/12 07:13:54;;;;;;;18.08;6.57;;;6.10;99.90;;;;;;5023425;28;20033;-69
2020/12/12 07:16:21;;;;;;;15.55;6.80;;;6.10;99.90;;;;;;5018175;28;20504;-69
2020/12/12 07:18:50;;;;;;;14.40;6.43;;;6.10;99.90;;;;;;5023949;28;20025;-69
2020/12/12 07:21:16;;;;;;;14.00;5.63;;;6.10;99.90;;;;;;5019043;28;20032;-68
2020/12/12 07:23:41;;;;;;;14.23;5.75;;;6.10;99.90;;;;;;5018625;28;20030;-68
2020/12/12 07:26:07;;;;;;;14.57;6.22;;;6.10;99.90;;;;;;5013887;28;20068;-68
2020/12/12 07:28:33;;;;;;;14.45;5.57;;;6.20;99.90;;;;;;5013651;28;20026;-68
2020/12/12 07:31:01;;;;;;;14.05;5.97;;;6.20;99.90;;;;;;5023518;28;20022;-68
2020/12/12 07:33:27;;;;;;;14.95;6.00;;;6.30;99.90;;;;;;5023824;28;20084;-68
2020/12/12 07:35:53;;;;;;;15.38;5.82;;;6.30;99.90;;;;;;5018824;28;20025;-69
2020/12/12 07:38:18;;;;;;;11.32;4.75;;;6.30;99.90;;;;;;5020267;28;20116;-69
2020/12/12 07:40:44;;;;;;;9.82;4.07;;;6.40;99.90;;;;;;5013064;28;20091;-69
2020/12/12 07:43:10;;;;;;;11.15;4.97;;;6.40;99.90;;;;;;5018903;28;20030;-70
2020/12/12 07:46:37;;;;;;;9.68;4.13;;;6.40;99.90;;;;;;5019437;28;20434;-69
2020/12/12 07:48:23;;;;;;;10.98;4.55;;;6.50;99.90;;;;;;5009895;28;20454;-69
2020/12/12 07:50:48;;;;;;;9.18;4.03;;;6.50;99.90;;;;;;5024357;28;20059;-69
2020/12/12 07:53:17;;;;;;;12.93;4.78;;;6.50;99.90;;;;;;5030017;28;20080;-72
2020/12/12 07:55:52;;;;;;;9.57;4.57;;;6.50;99.90;;;;;;5030233;28;20045;-69
2020/12/12 07:58:31;;;;;;;11.00;4.85;;;6.50;99.90;;;;;;5049314;28;20381;-69
2020/12/12 08:01:01;;;;;;;9.40;4.13;;;6.50;99.90;;;;;;5051358;28;20531;-69
2020/12/12 08:03:27;;;;;;;13.38;6.07;;;6.60;99.90;;;;;;5049571;28;20029;-69
2020/12/12 08:06:06;;;;;;;12.98;5.22;;;6.60;99.90;;;;;;5050474;28;20033;-69
2020/12/12 08:08:33;;;;;;;11.25;4.38;;;6.70;99.90;;;;;;5051404;28;20381;-69
2020/12/12 08:11:00;;;;;;;12.05;5.10;;;6.60;99.90;;;;;;5049213;28;20025;-69
2020/12/12 08:13:29;;;;;;;10.63;4.43;;;6.80;99.90;;;;;;5048407;28;20094;-69
2020/12/12 08:16:11;;;;;;;14.27;6.40;;;6.70;99.90;;;;;;5044221;28;20119;-71
2020/12/12 08:18:37;;;;;;;11.80;5.97;;;6.80;99.90;;;;;;5048375;28;20021;-71
2020/12/12 08:21:13;;;;;;;14.30;6.22;;;6.80;99.90;;;;;;5037250;28;20035;-70
2020/12/12 08:23:39;;;;;;;14.45;7.18;;;6.80;99.90;;;;;;5035089;28;20029;-71
2020/12/12 08:26:06;;;;;;;15.32;6.90;;;6.80;99.90;;;;;;5047081;28;20040;-71
2020/12/12 08:28:36;;;;;;;13.98;6.05;;;6.90;99.90;;;;;;5039220;28;20407;-70
2020/12/12 08:31:16;;;;;;;13.90;6.07;;;7.10;99.90;;;;;;5048304;28;20025;-69
2020/12/12 08:33:44;;;;;;;14.45;6.57;;;7.20;99.90;;;;;;5041186;28;20452;-70
2020/12/12 08:36:11;;;;;;;13.27;6.15;;;7.30;99.90;;;;;;5048203;28;20430;-71
2020/12/12 08:38:37;;;;;;;14.25;6.70;;;7.30;99.90;;;;;;5030414;28;20036;-70
2020/12/12 08:41:10;;;;;;;12.75;5.53;;;7.40;99.90;;;;;;5042770;28;20025;-70
2020/12/12 08:43:36;;;;;;;15.43;6.75;;;7.40;99.90;;;;;;5048354;28;20033;-70
2020/12/12 08:46:03;;;;;;;14.07;5.80;;;7.50;99.90;;;;;;5038181;28;20029;-70
2020/12/12 08:48:33;;;;;;;12.70;5.47;;;7.50;99.90;;;;;;5034726;28;20045;-70
2020/12/12 08:51:01;;;;;;;12.73;5.35;;;7.60;99.90;;;;;;5051368;28;20033;-71
2020/12/12 08:53:26;;;;;;;13.15;6.00;;;7.50;99.90;;;;;;5042785;28;20091;-71
2020/12/12 08:56:05;;;;;;;15.25;7.05;;;7.40;99.90;;;;;;5057434;28;20044;-70
2020/12/12 08:58:44;;;;;;;16.15;7.28;;;7.50;99.90;;;;;;5060479;28;20392;-70
2020/12/12 09:01:16;;;;;;;17.40;8.13;;;7.50;99.90;;;;;;5065651;28;20024;-70
2020/12/12 09:04:06;;;;;;;15.13;6.93;;;7.50;99.90;;;;;;5050505;28;20059;-70
2020/12/12 09:06:45;;;;;;;12.20;4.95;;;7.50;99.90;;;;;;5061275;28;20503;-72
2020/12/12 09:09:20;;;;;;;13.88;6.55;;;7.50;99.90;;;;;;5060291;28;20050;-68
2020/12/12 09:12:08;;;;;;;15.95;7.20;;;7.50;99.90;;;;;;5057811;28;20028;-68
2020/12/12 09:14:36;;;;;;;15.07;6.68;;;7.50;99.90;;;;;;5060575;28;20530;-68
2020/12/12 09:17:07;;;;;;;14.75;6.82;;;7.60;99.90;;;;;;5055965;28;20099;-69
2020/12/12 09:19:33;;;;;;;14.68;6.70;;;7.70;99.90;;;;;;5052966;28;20024;-70
2020/12/12 09:21:59;;;;;;;16.02;7.00;;;7.80;99.90;;;;;;5060811;28;21008;-70
2020/12/12 09:24:26;;;;;;;13.90;6.55;;;8.00;99.90;;;;;;5066512;28;20032;-70
2020/12/12 09:26:57;;;;;;;15.18;6.63;;;8.00;99.90;;;;;;5062787;28;20104;-71
2020/12/12 09:29:23;;;;;;;13.55;5.72;;;8.10;99.90;;;;;;5054366;28;20024;-72
2020/12/12 09:31:54;;;;;;;13.85;6.32;;;8.00;99.90;;;;;;5057478;28;20024;-69
2020/12/12 09:34:22;;;;;;;15.05;6.35;;;7.90;99.90;;;;;;5064642;28;20033;-74
2020/12/12 09:36:49;;;;;;;13.85;6.70;;;7.90;99.90;;;;;;5051511;28;20021;-70
2020/12/12 09:39:15;;;;;;;15.15;7.35;;;7.90;99.90;;;;;;5061848;28;20547;-71
2020/12/12 09:41:40;;;;;;;13.80;6.45;;;7.90;99.90;;;;;;5067511;28;20021;-71
2020/12/12 09:44:09;;;;;;;14.20;6.43;;;7.90;99.90;;;;;;5072797;28;20149;-71
2020/12/12 09:46:35;;;;;;;12.00;4.95;;;8.10;99.90;;;;;;5067292;28;20037;-70
2020/12/12 09:49:00;;;;;;;13.95;6.45;;;8.00;99.90;;;;;;5066712;28;20078;-71
2020/12/12 09:51:26;;;;;;;15.38;6.88;;;8.00;99.90;;;;;;5065810;28;20104;-70
2020/12/12 09:53:53;;;;;;;14.23;6.35;;;8.10;99.90;;;;;;5056240;28;20554;-70
2020/12/12 09:56:19;;;;;;;15.82;7.43;;;8.20;99.90;;;;;;5063566;28;20047;-70
2020/12/12 09:58:45;;;;;;;14.35;6.43;;;8.30;99.90;;;;;;5071636;28;20487;-72
2020/12/12 10:01:15;;;;;;;17.30;6.90;;;8.40;99.90;;;;;;5055437;28;20025;-72
2020/12/12 10:03:41;;;;;;;14.27;6.63;;;8.40;99.90;;;;;;5072235;28;20111;-72
2020/12/12 10:06:08;;;;;;;16.10;7.10;;;8.40;99.90;;;;;;5059278;28;20075;-71
2020/12/12 10:08:34;;;;;;;15.15;7.13;;;8.60;99.90;;;;;;5069625;28;20558;-70
2020/12/12 10:11:00;;;;;;;15.20;7.13;;;8.80;99.90;;;;;;5071546;28;20071;-71
2020/12/12 10:13:25;;;;;;;15.18;6.95;;;9.00;99.90;;;;;;5063711;28;20072;-71
2020/12/12 10:15:51;;;;;;;15.27;6.60;;;9.10;99.90;;;;;;5072590;28;20464;-71
2020/12/12 10:18:16;;;;;;;15.45;6.90;;;9.10;99.90;;;;;;5047705;28;20079;-71
2020/12/12 10:20:42;;;;;;;14.20;6.47;;;9.00;99.90;;;;;;5061230;28;20040;-71
2020/12/12 10:23:08;;;;;;;14.27;7.13;;;8.90;99.90;;;;;;5060837;28;20077;-71
2020/12/12 10:25:34;;;;;;;14.02;6.60;;;8.90;99.90;;;;;;5067404;28;20267;-71
2020/12/12 10:28:00;;;;;;;13.80;5.70;;;9.00;99.90;;;;;;5064199;28;20039;-70
2020/12/12 10:30:25;;;;;;;10.18;4.43;;;9.30;99.90;;;;;;5072048;28;21667;-68
2020/12/12 10:32:51;;;;;;;10.35;4.53;;;9.30;99.90;;;;;;5058228;28;20147;-70
2020/12/12 10:35:17;;;;;;;10.88;4.00;;;9.30;99.90;;;;;;5039576;28;20124;-70
2020/12/12 10:37:43;;;;;;;11.63;5.13;;;9.20;99.90;;;;;;5056085;28;20121;-72
2020/12/12 10:42:41;;;;;;;10.38;4.55;;;9.00;99.90;;;;;;5038750;28;20029;-71
2020/12/12 10:45:08;;;;;;;11.23;4.53;;;9.10;99.90;;;;;;5036978;28;20035;-72
2020/12/12 10:47:34;;;;;;;9.52;4.40;;;9.10;99.90;;;;;;5051813;28;20063;-71
2020/12/12 10:50:00;;;;;;;10.85;4.90;;;9.00;99.90;;;;;;5063465;28;20403;-72
2020/12/12 10:52:26;;;;;;;10.77;4.65;;;9.10;99.90;;;;;;5056835;28;20025;-71
2020/12/12 10:54:52;;;;;;;11.00;4.63;;;9.20;99.90;;;;;;5056010;28;20047;-72
2020/12/12 10:57:17;;;;;;;10.63;4.47;;;9.20;99.90;;;;;;5057183;28;20021;-74
2020/12/12 10:59:43;;;;;;;9.73;4.40;;;9.30;99.90;;;;;;5062274;28;20078;-72
2020/12/12 11:02:14;;;;;;;9.40;3.95;;;9.30;99.90;;;;;;5056403;28;20531;-72
2020/12/12 11:04:40;;;;;;;10.15;4.45;;;9.30;99.90;;;;;;5051402;28;20035;-71
2020/12/12 11:07:07;;;;;;;10.82;4.47;;;9.30;99.90;;;;;;5059082;28;20043;-71
2020/12/12 11:09:34;;;;;;;10.10;4.20;;;9.20;99.90;;;;;;5071305;28;20062;-71
2020/12/12 11:12:00;;;;;;;9.20;3.92;;;9.30;99.90;;;;;;5072189;28;20081;-71
2020/12/12 11:14:28;;;;;;;9.45;3.80;;;9.40;99.90;;;;;;5070117;28;20602;-72
2020/12/12 11:16:54;;;;;;;9.50;3.75;;;9.50;99.90;;;;;;5058689;28;20021;-71
2020/12/12 11:19:20;;;;;;;9.23;3.63;;;9.50;99.90;;;;;;5071167;28;20036;-71
2020/12/12 11:21:45;;;;;;;10.38;4.47;;;9.80;99.90;;;;;;5070944;28;20020;-71
2020/12/12 11:24:12;;;;;;;10.13;4.25;;;9.60;99.90;;;;;;5072303;28;20061;-71
2020/12/12 11:26:38;;;;;;;10.02;3.35;;;9.60;99.90;;;;;;5053267;28;20052;-71
2020/12/12 11:29:04;;;;;;;9.63;3.92;;;9.80;99.90;;;;;;5069696;28;20533;-71
2020/12/12 11:31:30;;;;;;;10.38;3.90;;;9.50;99.90;;;;;;5063353;28;20533;-71
2020/12/12 11:34:12;;;;;;;9.52;3.70;;;9.40;99.90;;;;;;5043392;28;20033;-71
2020/12/12 11:36:53;;;;;;;8.82;3.42;;;9.40;99.90;;;;;;5074752;28;20034;-71
2020/12/12 11:47:38;;;;;;;8.75;3.75;;;9.10;99.90;;;;;;5035387;28;20036;-71
2020/12/12 11:50:04;;;;;;;8.60;3.70;;;9.10;99.90;;;;;;5060136;28;20765;-73
2020/12/12 11:52:36;;;;;;;9.60;4.22;;;9.10;99.90;;;;;;5061714;28;20035;-70
2020/12/12 11:55:02;;;;;;;10.02;3.88;;;9.10;99.90;;;;;;5069705;28;20037;-70
2020/12/12 11:57:27;;;;;;;8.85;3.63;;;9.00;99.90;;;;;;5069862;28;20095;-70
2020/12/12 11:59:55;;;;;;;8.52;3.55;;;8.90;99.90;;;;;;5061950;28;20025;-70
2020/12/12 12:02:21;;;;;;;9.00;3.80;;;9.00;99.90;;;;;;5069869;28;20020;-71
2020/12/12 12:04:47;;;;;;;8.50;3.65;;;8.90;99.90;;;;;;5057765;28;20516;-71
2020/12/12 12:07:12;;;;;;;8.10;3.40;;;9.00;99.90;;;;;;5063837;28;20016;-72
2020/12/12 12:09:44;;;;;;;8.73;3.67;;;8.90;99.90;;;;;;5070463;28;20031;-73
2020/12/12 12:12:10;;;;;;;9.98;3.80;;;8.90;99.90;;;;;;5067978;28;20025;-71
2020/12/12 12:14:36;;;;;;;9.07;3.78;;;8.80;99.90;;;;;;5069976;28;20043;-71
2020/12/12 12:17:01;;;;;;;9.63;4.38;;;9.00;99.90;;;;;;5066105;28;20032;-71
2020/12/12 12:19:27;;;;;;;9.07;3.72;;;8.90;99.90;;;;;;5069457;28;20028;-72
2020/12/12 12:21:53;;;;;;;9.30;3.50;;;8.90;99.90;;;;;;5051058;28;20023;-71
2020/12/12 12:24:20;;;;;;;8.73;3.95;;;8.80;99.90;;;;;;5063777;28;20073;-71
2020/12/12 12:26:50;;;;;;;10.68;4.15;;;8.80;99.90;;;;;;5049211;28;20052;-71
2020/12/12 12:29:20;;;;;;;9.30;3.90;;;8.80;99.90;;;;;;5071092;28;20021;-71
2020/12/12 12:31:48;;;;;;;9.52;3.80;;;8.70;99.90;;;;;;5050629;28;20073;-71
2020/12/12 12:34:14;;;;;;;8.32;3.67;;;8.70;99.90;;;;;;5067122;28;20119;-72
2020/12/12 12:36:40;;;;;;;9.18;3.58;;;8.70;99.90;;;;;;5047549;28;20032;-71
2020/12/12 12:39:08;;;;;;;9.18;4.18;;;8.60;99.90;;;;;;5059274;28;20028;-71
2020/12/12 12:41:34;;;;;;;11.27;4.35;;;8.70;99.90;;;;;;5057761;28;20063;-70
2020/12/12 12:44:01;;;;;;;12.18;4.07;;;8.70;99.90;;;;;;5068890;28;20028;-70
2020/12/12 12:46:34;;;;;;;9.48;4.30;;;8.70;99.90;;;;;;5063274;28;20055;-70
2020/12/12 12:49:00;;;;;;;10.07;3.95;;;8.70;99.90;;;;;;5054188;28;20046;-70
2020/12/12 12:51:26;;;;;;;10.27;4.20;;;8.80;99.90;;;;;;5037125;28;20032;-70
2020/12/12 12:53:53;;;;;;;10.65;4.13;;;8.90;99.90;;;;;;5060510;28;20040;-72
2020/12/12 12:56:26;;;;;;;9.55;3.83;;;8.90;99.90;;;;;;5050733;28;21417;-71
2020/12/12 12:58:55;;;;;;;11.85;4.20;;;8.80;99.90;;;;;;5051367;28;20074;-71
2020/12/12 13:01:22;;;;;;;11.02;4.30;;;8.90;99.90;;;;;;5066033;28;20032;-71
2020/12/12 13:03:49;;;;;;;9.50;4.20;;;8.80;99.90;;;;;;5069543;28;20016;-71